Terminal Aerodrome Forecast
Issued by NWS Duluth, MN

Home | Current Version | Previous Version | Text Only | Print | Product List | Glossary On
Versions: 1 2 3 4 5 6 7 8 9 10 11 12 13 14 15 16 17 18
000
FTUS43 KDLH 011100 RRA
TAFDLH
TAF
KDLH 011143Z 0112/0212 24010KT 4SM -SN SCT012 OVC023
      TEMPO 0112/0114 2SM -SN BKN015
     FM011500 26011KT P6SM SCT015 SCT050
     FM012000 28012KT P6SM BKN040
     FM020200 30011KT P6SM SKC
     FM020600 30008KT P6SM SKC=

USA.gov is the U.S. government's official web portal to all federal, state and local government web resources and services.